createdAt,value
2022-10-04T00:03:29.889Z,1022.29
2022-10-04T00:13:36.231Z,1022.32
2022-10-04T00:23:42.579Z,1022.25
2022-10-04T00:33:48.270Z,1022.27
2022-10-04T00:43:54.754Z,1022.31
2022-10-04T00:54:00.940Z,1022.24
2022-10-04T01:04:07.800Z,1022.30
2022-10-04T01:14:14.594Z,1022.29
2022-10-04T01:24:20.820Z,1022.25
2022-10-04T01:34:27.082Z,1022.22
2022-10-04T01:44:33.347Z,1022.20
2022-10-04T01:54:39.834Z,1022.20
2022-10-04T02:04:46.041Z,1022.16
2022-10-04T02:14:52.264Z,1021.99
2022-10-04T02:24:58.815Z,1022.01
2022-10-04T02:35:04.982Z,1022.02
2022-10-04T02:45:11.847Z,1021.94
2022-10-04T02:55:18.997Z,1021.91
2022-10-04T03:05:26.613Z,1021.91
2022-10-04T03:15:33.472Z,1021.97
2022-10-04T03:25:39.900Z,1022.07
2022-10-04T03:35:46.322Z,1022.11
2022-10-04T03:45:52.934Z,1022.06
2022-10-04T03:56:04.022Z,1022.05
2022-10-04T04:06:11.308Z,1022.06
2022-10-04T04:16:18.591Z,1022.11
2022-10-04T04:26:25.915Z,1022.15
2022-10-04T04:36:33.045Z,1022.12
2022-10-04T04:46:39.920Z,1022.19
2022-10-04T04:56:46.526Z,1022.19
2022-10-04T05:06:53.600Z,1022.21
2022-10-04T05:17:00.563Z,1022.21
2022-10-04T05:27:06.748Z,1022.21
2022-10-04T05:37:13.701Z,1022.19
2022-10-04T05:47:20.788Z,1022.26
2022-10-04T05:57:27.992Z,1022.30
2022-10-04T06:07:35.271Z,1022.39
2022-10-04T06:17:42.502Z,1022.50
2022-10-04T06:27:49.676Z,1022.50
2022-10-04T06:37:56.418Z,1022.59
2022-10-04T06:48:03.343Z,1022.67
2022-10-04T06:58:10.526Z,1022.75
2022-10-04T07:08:17.391Z,1022.76
2022-10-04T07:18:23.844Z,1022.88
2022-10-04T07:28:30.559Z,1022.96
2022-10-04T07:38:37.676Z,1023.00
2022-10-04T07:48:44.241Z,1023.13
2022-10-04T07:58:50.645Z,1023.20
2022-10-04T08:08:57.270Z,1023.32
2022-10-04T08:19:04.469Z,1023.38
2022-10-04T08:29:11.477Z,1023.49
2022-10-04T08:39:18.619Z,1023.52
2022-10-04T08:49:25.481Z,1023.53
2022-10-04T08:59:32.340Z,1023.56
2022-10-04T09:09:38.966Z,1023.47
2022-10-04T09:19:46.078Z,1023.51
2022-10-04T09:29:52.556Z,1023.45
2022-10-04T09:39:58.760Z,1023.47
2022-10-04T09:50:05.120Z,1023.41
2022-10-04T10:00:11.997Z,1023.41
2022-10-04T10:10:18.299Z,1023.30
2022-10-04T10:20:25.207Z,1023.31
2022-10-04T10:30:32.184Z,1023.32
2022-10-04T10:40:39.619Z,1023.41
2022-10-04T10:50:46.011Z,1023.39
2022-10-04T11:00:52.593Z,1023.27
2022-10-04T11:10:58.942Z,1023.40
2022-10-04T11:21:05.286Z,1023.34
2022-10-04T11:31:12.257Z,1023.35
2022-10-04T11:41:19.317Z,1023.24
2022-10-04T11:51:26.760Z,1023.23
2022-10-04T12:01:33.952Z,1023.10
2022-10-04T12:11:40.907Z,1023.09
2022-10-04T12:21:47.900Z,1023.03
2022-10-04T12:31:55.310Z,1022.91
2022-10-04T12:42:01.658Z,1022.92
2022-10-04T12:52:08.109Z,1022.92
2022-10-04T13:02:14.864Z,1022.94
2022-10-04T13:12:22.063Z,1022.94
2022-10-04T13:22:54.804Z,1022.72
2022-10-04T13:32:41.554Z,1022.52
2022-10-04T13:42:48.418Z,1022.50
2022-10-04T13:52:55.149Z,1022.45
2022-10-04T14:03:02.371Z,1022.23
2022-10-04T14:13:09.317Z,1022.09
2022-10-04T14:23:15.797Z,1022.10
2022-10-04T14:33:22.584Z,1021.99
2022-10-04T14:43:29.330Z,1022.01
2022-10-04T14:53:36.434Z,1021.94
2022-10-04T15:03:43.622Z,1021.81
2022-10-04T15:13:50.581Z,1021.72
2022-10-04T15:23:57.305Z,1021.62
2022-10-04T15:34:04.280Z,1021.68
2022-10-04T15:44:10.998Z,1021.71
2022-10-04T15:54:18.028Z,1021.75
2022-10-04T16:04:25.001Z,1021.76
2022-10-04T16:14:32.156Z,1021.69
2022-10-04T16:24:38.952Z,1021.66
2022-10-04T16:34:45.852Z,1021.49
2022-10-04T16:44:52.640Z,1021.47
2022-10-04T16:54:59.084Z,1021.67
2022-10-04T17:05:06.393Z,1021.86
2022-10-04T17:15:13.460Z,1021.88
2022-10-04T17:25:20.630Z,1021.92
2022-10-04T17:35:27.609Z,1022.01
2022-10-04T17:45:34.424Z,1021.88
2022-10-04T17:55:41.222Z,1021.78
2022-10-04T18:05:48.332Z,1021.82
2022-10-04T18:15:55.347Z,1021.61
2022-10-04T18:26:02.386Z,1021.77
2022-10-04T18:36:09.539Z,1021.74
2022-10-04T18:46:16.647Z,1021.62
2022-10-04T18:56:23.875Z,1021.61
2022-10-04T19:06:30.707Z,1021.70
2022-10-04T19:16:38.047Z,1021.76
2022-10-04T19:26:45.076Z,1021.65
2022-10-04T19:36:52.516Z,1021.73
2022-10-04T19:46:59.560Z,1021.76
2022-10-04T19:57:05.979Z,1021.80
2022-10-04T20:07:12.519Z,1021.89
2022-10-04T20:17:19.490Z,1021.72
2022-10-04T20:27:26.727Z,1021.77
2022-10-04T20:37:33.925Z,1021.83
2022-10-04T20:47:40.899Z,1021.61
2022-10-04T20:57:48.024Z,1021.63
2022-10-04T21:07:55.187Z,1021.61
2022-10-04T21:18:02.085Z,1021.61
2022-10-04T21:28:09.082Z,1021.60
2022-10-04T21:38:15.442Z,1021.35
2022-10-04T21:48:22.653Z,1021.24
2022-10-04T21:58:29.410Z,1021.13
2022-10-04T22:08:36.407Z,1021.14
2022-10-04T22:18:43.048Z,1020.99
2022-10-04T22:28:49.837Z,1020.92
2022-10-04T22:38:56.997Z,1020.84
2022-10-04T22:49:04.093Z,1020.76
2022-10-04T22:59:10.920Z,1020.58
2022-10-04T23:09:18.095Z,1020.59
2022-10-04T23:19:25.238Z,1020.65
2022-10-04T23:29:32.237Z,1020.57
2022-10-04T23:39:39.086Z,1020.49
2022-10-04T23:49:46.180Z,1020.31
2022-10-04T23:59:52.778Z,1020.56
